createdAt,value
2018-03-14T00:00:09.729Z,2.16
2018-03-14T00:01:09.713Z,2.13
2018-03-14T00:02:09.716Z,2.16
2018-03-14T00:03:09.943Z,2.05
2018-03-14T00:04:09.917Z,2.09
2018-03-14T00:05:09.908Z,2.09
2018-03-14T00:06:10.356Z,2.06
2018-03-14T00:07:09.889Z,2.09
2018-03-14T00:08:09.871Z,1.97
2018-03-14T00:09:09.850Z,1.97
2018-03-14T00:10:09.837Z,1.84
2018-03-14T00:11:09.810Z,2.02
2018-03-14T00:12:09.784Z,2.01
2018-03-14T00:13:09.776Z,1.86
2018-03-14T00:14:11.167Z,2.01
2018-03-14T00:15:09.736Z,1.92
2018-03-14T00:16:09.463Z,1.89
2018-03-14T00:17:09.713Z,1.86
2018-03-14T00:18:09.420Z,1.84
2018-03-14T00:19:09.409Z,1.89
2018-03-14T00:20:09.651Z,1.86
2018-03-14T00:21:09.360Z,1.84
2018-03-14T00:22:11.019Z,1.83
2018-03-14T00:23:09.607Z,1.74
2018-03-14T00:24:09.042Z,1.72
2018-03-14T00:25:09.293Z,1.75
2018-03-14T00:26:09.557Z,1.74
2018-03-14T00:27:09.284Z,1.75
2018-03-14T00:28:09.263Z,1.78
2018-03-14T00:29:09.230Z,1.69
2018-03-14T00:30:09.346Z,1.76
2018-03-14T00:31:09.194Z,1.71
2018-03-14T00:32:09.176Z,1.58
2018-03-14T00:33:09.163Z,1.68
2018-03-14T00:34:09.421Z,1.64
2018-03-14T00:35:09.149Z,1.6
2018-03-14T00:36:09.108Z,1.64
2018-03-14T00:37:09.729Z,1.53
2018-03-14T00:38:10.225Z,1.58
2018-03-14T00:39:09.342Z,1.58
2018-03-14T00:40:09.328Z,1.58
2018-03-14T00:41:09.301Z,1.53
2018-03-14T00:42:09.000Z,1.56
2018-03-14T00:43:08.980Z,1.54
2018-03-14T00:44:08.977Z,1.56
2018-03-14T00:45:08.966Z,1.56
2018-03-14T00:46:09.204Z,1.54
2018-03-14T00:47:08.929Z,1.57
2018-03-14T00:48:08.921Z,1.57
2018-03-14T00:49:09.168Z,1.57
2018-03-14T00:50:08.878Z,1.58
2018-03-14T00:51:09.155Z,1.61
2018-03-14T00:52:08.832Z,1.57
2018-03-14T00:53:10.299Z,1.53
2018-03-14T00:54:09.069Z,1.65
2018-03-14T00:55:08.789Z,1.54
2018-03-14T00:56:09.052Z,1.64
2018-03-14T00:57:08.754Z,1.64
2018-03-14T00:58:09.016Z,1.58
2018-03-14T00:59:08.983Z,1.64
2018-03-14T01:00:08.703Z,1.6
2018-03-14T01:01:10.609Z,1.56
2018-03-14T01:02:09.020Z,1.54
2018-03-14T01:03:08.642Z,1.6
2018-03-14T01:04:08.359Z,1.53
2018-03-14T01:05:08.897Z,1.61
2018-03-14T01:06:08.887Z,1.61
2018-03-14T01:07:08.847Z,1.57
2018-03-14T01:08:09.085Z,1.64
2018-03-14T01:09:09.699Z,1.6
2018-03-14T01:10:08.898Z,1.66
2018-03-14T01:11:08.833Z,1.65
2018-03-14T01:12:08.807Z,1.6
2018-03-14T01:13:08.474Z,1.6
2018-03-14T01:14:08.739Z,1.66
2018-03-14T01:15:08.468Z,1.61
2018-03-14T01:16:09.105Z,1.66
2018-03-14T01:17:08.423Z,1.61
2018-03-14T01:18:08.397Z,1.6
2018-03-14T01:19:08.640Z,1.68
2018-03-14T01:20:08.638Z,1.75
2018-03-14T01:21:08.076Z,1.78
2018-03-14T01:22:08.596Z,1.75
2018-03-14T01:23:08.621Z,1.76
2018-03-14T01:24:08.023Z,1.74
2018-03-14T01:25:08.557Z,1.75
2018-03-14T01:26:08.259Z,1.72
2018-03-14T01:27:08.253Z,1.72
2018-03-14T01:28:08.010Z,1.89
2018-03-14T01:29:07.941Z,1.72
2018-03-14T01:30:08.471Z,1.71
2018-03-14T01:31:08.453Z,1.83
2018-03-14T01:32:09.012Z,1.83
2018-03-14T01:33:08.417Z,1.75
2018-03-14T01:34:08.140Z,1.89
2018-03-14T01:35:08.393Z,1.75
2018-03-14T01:36:08.103Z,1.74
2018-03-14T01:37:08.091Z,1.72
2018-03-14T01:38:08.337Z,1.72
2018-03-14T01:39:08.051Z,1.72
2018-03-14T01:40:09.115Z,1.64
2018-03-14T01:41:08.019Z,1.72
2018-03-14T01:42:07.990Z,1.68
2018-03-14T01:43:07.980Z,1.75
2018-03-14T01:44:07.983Z,1.66
2018-03-14T01:45:07.941Z,1.74
2018-03-14T01:46:07.925Z,1.71
2018-03-14T01:47:08.822Z,1.56
2018-03-14T01:48:07.906Z,1.66
2018-03-14T01:49:07.605Z,1.74
2018-03-14T01:50:07.859Z,1.6
2018-03-14T01:51:07.593Z,1.68
2018-03-14T01:52:07.849Z,1.58
2018-03-14T01:53:08.088Z,1.69
2018-03-14T01:54:07.791Z,1.56
2018-03-14T01:55:08.588Z,1.56
2018-03-14T01:56:07.492Z,1.56
2018-03-14T01:57:07.749Z,1.69
2018-03-14T01:58:07.989Z,1.65
2018-03-14T01:59:07.438Z,1.65
2018-03-14T02:00:07.421Z,1.64
2018-03-14T02:01:07.937Z,1.66
2018-03-14T02:02:07.699Z,1.64
2018-03-14T02:03:08.704Z,1.68
2018-03-14T02:04:07.623Z,1.65
2018-03-14T02:05:07.602Z,1.65
2018-03-14T02:06:07.594Z,1.6
2018-03-14T02:07:07.877Z,1.64
2018-03-14T02:08:07.867Z,1.64
2018-03-14T02:09:07.807Z,1.61
2018-03-14T02:10:08.324Z,1.65
2018-03-14T02:11:07.503Z,1.56
2018-03-14T02:12:07.490Z,1.64
2018-03-14T02:13:07.748Z,1.65
2018-03-14T02:14:07.453Z,1.58
2018-03-14T02:15:07.707Z,1.57
2018-03-14T02:16:07.416Z,1.6
2018-03-14T02:17:07.409Z,1.58
2018-03-14T02:18:08.092Z,1.57
2018-03-14T02:19:07.659Z,1.58
2018-03-14T02:20:07.351Z,1.56
2018-03-14T02:21:07.623Z,1.53
2018-03-14T02:22:07.325Z,1.56
2018-03-14T02:23:07.591Z,1.57
2018-03-14T02:24:07.294Z,1.47
2018-03-14T02:25:07.549Z,1.48
2018-03-14T02:26:09.148Z,1.44
2018-03-14T02:27:07.251Z,1.42
2018-03-14T02:28:07.217Z,1.56
2018-03-14T02:29:07.197Z,1.42
2018-03-14T02:30:07.450Z,1.38
2018-03-14T02:31:07.454Z,1.54
2018-03-14T02:32:07.450Z,1.5
2018-03-14T02:33:07.168Z,1.38
2018-03-14T02:34:06.847Z,1.42
2018-03-14T02:35:06.832Z,1.36
2018-03-14T02:36:07.110Z,1.36
2018-03-14T02:37:07.341Z,1.38
2018-03-14T02:38:07.346Z,1.36
2018-03-14T02:39:07.047Z,1.44
2018-03-14T02:40:07.033Z,1.36
2018-03-14T02:41:06.730Z,1.42
2018-03-14T02:42:07.255Z,1.39
2018-03-14T02:43:07.254Z,1.29
2018-03-14T02:44:07.223Z,1.35
2018-03-14T02:45:07.173Z,1.33
2018-03-14T02:46:06.643Z,1.4
2018-03-14T02:47:07.140Z,1.36
2018-03-14T02:48:06.868Z,1.39
2018-03-14T02:49:06.591Z,1.39
2018-03-14T02:50:06.833Z,1.39
2018-03-14T02:51:06.815Z,1.44
2018-03-14T02:52:07.058Z,1.4
2018-03-14T02:53:06.781Z,1.4
2018-03-14T02:54:06.762Z,1.36
2018-03-14T02:55:06.746Z,1.4
2018-03-14T02:56:06.991Z,1.38
2018-03-14T02:57:06.975Z,1.39
2018-03-14T02:58:06.957Z,1.42
2018-03-14T02:59:06.676Z,1.38
2018-03-14T03:00:06.921Z,1.39
2018-03-14T03:01:06.905Z,1.38
2018-03-14T03:02:06.627Z,1.3
2018-03-14T03:03:06.611Z,1.4
2018-03-14T03:04:06.602Z,1.42
2018-03-14T03:05:06.903Z,1.33
2018-03-14T03:06:06.559Z,1.39
2018-03-14T03:07:06.541Z,1.4
2018-03-14T03:08:06.525Z,1.35
2018-03-14T03:09:06.765Z,1.32
2018-03-14T03:10:06.233Z,1.38
2018-03-14T03:11:06.730Z,1.32
2018-03-14T03:12:06.463Z,1.3
2018-03-14T03:13:06.698Z,1.38
2018-03-14T03:14:06.421Z,1.3
2018-03-14T03:15:06.669Z,1.29
2018-03-14T03:16:06.650Z,1.33
2018-03-14T03:17:06.112Z,1.32
2018-03-14T03:18:06.095Z,1.2
2018-03-14T03:19:06.340Z,1.33
2018-03-14T03:20:06.319Z,1.29
2018-03-14T03:21:06.298Z,1.32
2018-03-14T03:22:06.550Z,1.33
2018-03-14T03:23:06.524Z,1.28
2018-03-14T03:24:06.522Z,1.21
2018-03-14T03:25:06.232Z,1.33
2018-03-14T03:26:05.956Z,1.2
2018-03-14T03:27:06.195Z,1.36
2018-03-14T03:28:06.441Z,1.33
2018-03-14T03:29:06.434Z,1.32
2018-03-14T03:30:05.893Z,1.39
2018-03-14T03:31:06.137Z,1.38
2018-03-14T03:32:06.119Z,1.39
2018-03-14T03:33:06.096Z,1.29
2018-03-14T03:34:06.338Z,1.28
2018-03-14T03:35:06.063Z,1.33
2018-03-14T03:36:06.042Z,1.38
2018-03-14T03:37:06.285Z,1.28
2018-03-14T03:38:06.267Z,1.32
2018-03-14T03:39:06.253Z,1.38
2018-03-14T03:40:05.979Z,1.36
2018-03-14T03:41:06.218Z,1.32
2018-03-14T03:42:05.942Z,1.2
2018-03-14T03:43:05.924Z,1.32
2018-03-14T03:44:06.165Z,1.28
2018-03-14T03:45:06.151Z,1.35
2018-03-14T03:46:05.873Z,1.3
2018-03-14T03:47:05.855Z,1.35
2018-03-14T03:48:05.837Z,1.38
2018-03-14T03:49:06.077Z,1.3
2018-03-14T03:50:06.066Z,1.32
2018-03-14T03:51:06.049Z,1.32
2018-03-14T03:52:05.768Z,1.44
2018-03-14T03:53:05.755Z,1.39
2018-03-14T03:54:05.997Z,1.39
2018-03-14T03:55:05.973Z,1.42
2018-03-14T03:56:05.442Z,1.4
2018-03-14T03:57:05.423Z,1.39
2018-03-14T03:58:05.666Z,1.39
2018-03-14T03:59:05.908Z,1.36
2018-03-14T04:00:05.893Z,1.36
2018-03-14T04:01:05.616Z,1.4
2018-03-14T04:02:05.602Z,1.4
2018-03-14T04:03:05.578Z,1.32
2018-03-14T04:04:05.562Z,1.33
2018-03-14T04:05:05.289Z,1.42
2018-03-14T04:06:05.526Z,1.32
2018-03-14T04:07:05.776Z,1.28
2018-03-14T04:08:05.755Z,1.39
2018-03-14T04:09:05.482Z,1.36
2018-03-14T04:10:05.721Z,1.4
2018-03-14T04:11:05.445Z,1.32
2018-03-14T04:12:05.687Z,1.35
2018-03-14T04:13:05.668Z,1.38
2018-03-14T04:14:05.657Z,1.33
2018-03-14T04:15:05.382Z,1.32
2018-03-14T04:16:05.614Z,1.32
2018-03-14T04:17:05.343Z,1.35
2018-03-14T04:18:05.327Z,1.32
2018-03-14T04:19:05.308Z,1.32
2018-03-14T04:20:05.287Z,1.22
2018-03-14T04:21:05.530Z,1.32
2018-03-14T04:22:05.516Z,1.29
2018-03-14T04:23:05.500Z,1.33
2018-03-14T04:24:05.218Z,1.29
2018-03-14T04:25:05.215Z,1.33
2018-03-14T04:26:05.441Z,1.3
2018-03-14T04:27:04.911Z,1.35
2018-03-14T04:28:05.153Z,1.32
2018-03-14T04:29:05.393Z,1.32
2018-03-14T04:30:05.375Z,1.28
2018-03-14T04:31:05.106Z,1.32
2018-03-14T04:32:05.083Z,1.3
2018-03-14T04:33:05.071Z,1.21
2018-03-14T04:34:05.307Z,1.24
2018-03-14T04:35:05.043Z,1.32
2018-03-14T04:36:05.015Z,1.28
2018-03-14T04:37:05.002Z,1.2
2018-03-14T04:38:05.240Z,1.24
2018-03-14T04:39:04.713Z,1.21
2018-03-14T04:40:04.947Z,1.29
2018-03-14T04:41:04.933Z,1.2
2018-03-14T04:42:04.654Z,1.28
2018-03-14T04:43:05.151Z,1.26
2018-03-14T04:44:05.138Z,1.26
2018-03-14T04:45:05.133Z,1.18
2018-03-14T04:46:04.844Z,1.3
2018-03-14T04:47:04.825Z,1.3
2018-03-14T04:48:05.068Z,1.21
2018-03-14T04:49:05.046Z,1.32
2018-03-14T04:50:04.777Z,1.35
2018-03-14T04:51:05.014Z,1.36
2018-03-14T04:52:04.739Z,1.32
2018-03-14T04:53:04.978Z,1.33
2018-03-14T04:54:04.708Z,1.32
2018-03-14T04:55:04.689Z,1.26
2018-03-14T04:56:04.925Z,1.3
2018-03-14T04:57:04.651Z,1.36
2018-03-14T04:58:04.634Z,1.29
2018-03-14T04:59:04.617Z,1.35
2018-03-14T05:00:04.601Z,1.35
2018-03-14T05:01:04.848Z,1.32
2018-03-14T05:02:04.577Z,1.32
2018-03-14T05:03:04.550Z,1.39
2018-03-14T05:04:04.530Z,1.33
2018-03-14T05:05:04.520Z,1.39
2018-03-14T05:06:04.499Z,1.39
2018-03-14T05:07:04.483Z,1.39
2018-03-14T05:08:04.729Z,1.29
2018-03-14T05:09:04.446Z,1.33
2018-03-14T05:10:04.429Z,1.29
2018-03-14T05:11:04.668Z,1.29
2018-03-14T05:12:04.398Z,1.33
2018-03-14T05:13:04.635Z,1.38
2018-03-14T05:14:04.616Z,1.42
2018-03-14T05:15:04.341Z,1.39
2018-03-14T05:16:04.588Z,1.29
2018-03-14T05:17:04.052Z,1.35
2018-03-14T05:18:04.292Z,1.24
2018-03-14T05:19:04.017Z,1.36
2018-03-14T05:20:04.265Z,1.26
2018-03-14T05:21:04.504Z,1.33
2018-03-14T05:22:04.224Z,1.29
2018-03-14T05:23:04.462Z,1.42
2018-03-14T05:24:04.448Z,1.38
2018-03-14T05:25:04.172Z,1.39
2018-03-14T05:26:04.412Z,1.3
2018-03-14T05:27:03.879Z,1.39
2018-03-14T05:28:04.379Z,1.38
2018-03-14T05:29:03.845Z,1.36
2018-03-14T05:30:04.363Z,1.32
2018-03-14T05:31:04.074Z,1.33
2018-03-14T05:32:04.054Z,1.36
2018-03-14T05:33:04.034Z,1.42
2018-03-14T05:34:04.019Z,1.35
2018-03-14T05:35:03.997Z,1.42
2018-03-14T05:36:03.987Z,1.44
2018-03-14T05:37:04.227Z,1.38
2018-03-14T05:38:03.950Z,1.48
2018-03-14T05:39:03.937Z,1.48
2018-03-14T05:40:04.178Z,1.46
2018-03-14T05:41:04.161Z,1.51
2018-03-14T05:42:04.137Z,1.5
2018-03-14T05:43:03.862Z,1.5
2018-03-14T05:44:03.847Z,1.46
2018-03-14T05:45:04.119Z,1.48
2018-03-14T05:46:03.814Z,1.53
2018-03-14T05:47:03.797Z,1.51
2018-03-14T05:48:04.040Z,1.47
2018-03-14T05:49:03.767Z,1.51
2018-03-14T05:50:04.009Z,1.48
2018-03-14T05:51:03.728Z,1.54
2018-03-14T05:52:03.454Z,1.4
2018-03-14T05:53:03.695Z,1.47
2018-03-14T05:54:03.936Z,1.56
2018-03-14T05:55:03.664Z,1.44
2018-03-14T05:56:03.905Z,1.38
2018-03-14T05:57:03.628Z,1.39
2018-03-14T05:58:03.870Z,1.53
2018-03-14T05:59:03.847Z,1.4
2018-03-14T06:00:03.578Z,1.47
2018-03-14T06:01:03.818Z,1.47
2018-03-14T06:02:03.802Z,1.53
2018-03-14T06:03:03.528Z,1.57
2018-03-14T06:04:03.765Z,1.51
2018-03-14T06:05:03.233Z,1.57
2018-03-14T06:06:03.216Z,1.48
2018-03-14T06:07:03.718Z,1.47
2018-03-14T06:08:03.443Z,1.54
2018-03-14T06:09:03.422Z,1.54
2018-03-14T06:10:03.665Z,1.54
2018-03-14T06:11:03.387Z,1.54
2018-03-14T06:12:03.369Z,1.5
2018-03-14T06:13:03.611Z,1.56
2018-03-14T06:14:03.596Z,1.56
2018-03-14T06:15:03.328Z,1.57
2018-03-14T06:16:03.569Z,1.57
2018-03-14T06:17:03.285Z,1.58
2018-03-14T06:18:03.528Z,1.58
2018-03-14T06:19:03.252Z,1.58
2018-03-14T06:20:03.239Z,1.65
2018-03-14T06:21:03.502Z,1.64
2018-03-14T06:22:03.201Z,1.64
2018-03-14T06:23:03.184Z,1.57
2018-03-14T06:24:03.426Z,1.64
2018-03-14T06:25:02.894Z,1.76
2018-03-14T06:26:03.134Z,1.76
2018-03-14T06:27:03.373Z,1.71
2018-03-14T06:28:03.100Z,1.74
2018-03-14T06:29:03.342Z,1.75
2018-03-14T06:30:03.324Z,1.71
2018-03-14T06:31:03.305Z,1.72
2018-03-14T06:32:03.032Z,1.83
2018-03-14T06:33:03.275Z,1.75
2018-03-14T06:34:03.257Z,1.84
2018-03-14T06:35:03.240Z,1.89
2018-03-14T06:36:03.218Z,1.86
2018-03-14T06:37:03.204Z,1.92
2018-03-14T06:38:03.189Z,1.98
2018-03-14T06:39:02.917Z,1.94
2018-03-14T06:40:02.902Z,1.94
2018-03-14T06:41:03.138Z,2.12
2018-03-14T06:42:03.125Z,2.04
2018-03-14T06:43:02.847Z,2.05
2018-03-14T06:44:03.090Z,2.13
2018-03-14T06:45:03.073Z,2.15
2018-03-14T06:46:02.540Z,2.2
2018-03-14T06:47:02.784Z,2.22
2018-03-14T06:48:03.021Z,2.26
2018-03-14T06:49:03.008Z,2.33
2018-03-14T06:50:02.996Z,2.4
2018-03-14T06:51:03.050Z,2.31
2018-03-14T06:52:02.697Z,2.34
2018-03-14T06:53:02.938Z,2.4
2018-03-14T06:54:02.927Z,2.34
2018-03-14T06:55:02.651Z,2.3
2018-03-14T06:56:02.631Z,2.33
2018-03-14T06:57:02.878Z,2.3
2018-03-14T06:58:02.603Z,2.38
2018-03-14T06:59:02.909Z,2.4
2018-03-14T07:00:02.827Z,2.44
2018-03-14T07:01:02.814Z,2.38
2018-03-14T07:02:02.568Z,2.42
2018-03-14T07:03:02.774Z,2.44
2018-03-14T07:04:02.758Z,2.44
2018-03-14T07:05:02.745Z,2.48
2018-03-14T07:06:02.729Z,2.42
2018-03-14T07:07:02.455Z,2.58
2018-03-14T07:08:02.692Z,2.47
2018-03-14T07:09:02.425Z,2.58
2018-03-14T07:10:02.664Z,2.59
2018-03-14T07:11:02.391Z,2.55
2018-03-14T07:12:02.442Z,2.62
2018-03-14T07:13:02.619Z,2.58
2018-03-14T07:14:02.342Z,2.69
2018-03-14T07:15:02.579Z,2.67
2018-03-14T07:16:02.569Z,2.62
2018-03-14T07:17:02.555Z,2.62
2018-03-14T07:18:02.537Z,2.63
2018-03-14T07:19:02.115Z,2.66
2018-03-14T07:20:02.247Z,2.76
2018-03-14T07:21:02.487Z,2.73
2018-03-14T07:22:02.471Z,2.72
2018-03-14T07:23:02.195Z,2.69
2018-03-14T07:24:02.438Z,2.77
2018-03-14T07:25:01.908Z,2.73
2018-03-14T07:26:02.412Z,2.78
2018-03-14T07:27:02.131Z,2.73
2018-03-14T07:28:02.375Z,2.83
2018-03-14T07:29:02.363Z,2.96
2018-03-14T07:30:02.338Z,2.91
2018-03-14T07:31:02.331Z,2.98
2018-03-14T07:32:02.363Z,3.06
2018-03-14T07:33:02.356Z,3.16
2018-03-14T07:34:02.287Z,3.2
2018-03-14T07:35:02.264Z,3.2
2018-03-14T07:36:02.252Z,3.23
2018-03-14T07:37:02.238Z,3.35
2018-03-14T07:38:01.961Z,3.35
2018-03-14T07:39:02.211Z,3.43
2018-03-14T07:40:02.186Z,3.46
2018-03-14T07:41:01.910Z,3.48
2018-03-14T07:42:02.153Z,3.48
2018-03-14T07:43:02.141Z,3.43
2018-03-14T07:44:01.864Z,3.56
2018-03-14T07:45:02.107Z,3.48
2018-03-14T07:46:02.099Z,3.57
2018-03-14T07:47:01.819Z,3.56
2018-03-14T07:48:02.060Z,3.58
2018-03-14T07:49:02.046Z,3.56
2018-03-14T07:50:02.039Z,3.54
2018-03-14T07:51:02.016Z,3.57
2018-03-14T07:52:02.013Z,3.6
2018-03-14T07:53:01.982Z,3.54
2018-03-14T07:54:02.022Z,3.54
2018-03-14T07:55:01.951Z,3.48
2018-03-14T07:56:01.936Z,3.51
2018-03-14T07:57:01.920Z,3.56
2018-03-14T07:58:01.649Z,3.49
2018-03-14T07:59:02.030Z,3.48
2018-03-14T08:00:01.619Z,3.53
2018-03-14T08:01:01.867Z,3.49
2018-03-14T08:02:01.613Z,3.57
2018-03-14T08:03:01.835Z,3.53
2018-03-14T08:04:01.819Z,3.46
2018-03-14T08:05:01.801Z,3.56
2018-03-14T08:06:01.786Z,3.58
2018-03-14T08:07:01.782Z,3.58
2018-03-14T08:08:01.537Z,3.53
2018-03-14T08:09:01.741Z,3.51
2018-03-14T08:10:01.726Z,3.48
2018-03-14T08:11:01.723Z,3.56
2018-03-14T08:12:01.692Z,3.58
2018-03-14T08:13:01.675Z,3.49
2018-03-14T08:14:01.830Z,3.49
2018-03-14T08:15:01.644Z,3.57
2018-03-14T08:16:01.419Z,3.46
2018-03-14T08:17:01.714Z,3.53
2018-03-14T08:18:01.603Z,3.67
2018-03-14T08:19:01.587Z,3.54
2018-03-14T08:20:01.598Z,3.57
2018-03-14T08:21:01.556Z,3.49
2018-03-14T08:22:01.549Z,3.57
2018-03-14T08:23:01.525Z,3.56
2018-03-14T08:24:01.256Z,3.51
2018-03-14T08:25:01.494Z,3.48
2018-03-14T08:26:01.578Z,3.53
2018-03-14T08:27:01.470Z,3.51
2018-03-14T08:28:01.189Z,3.61
2018-03-14T08:29:01.175Z,3.6
2018-03-14T08:30:01.417Z,3.6
2018-03-14T08:31:01.402Z,3.67
2018-03-14T08:32:01.388Z,3.84
2018-03-14T08:33:01.114Z,3.84
2018-03-14T08:34:00.844Z,3.96
2018-03-14T08:35:01.339Z,4.18
2018-03-14T08:36:01.329Z,4.17
2018-03-14T08:37:01.308Z,4.18
2018-03-14T08:38:01.038Z,4.21
2018-03-14T08:39:01.280Z,4.14
2018-03-14T08:40:01.267Z,4.1
2018-03-14T08:41:01.255Z,4.14
2018-03-14T08:42:00.980Z,4.15
2018-03-14T08:43:01.219Z,4.29
2018-03-14T08:44:01.211Z,4.29
2018-03-14T08:45:01.190Z,4.35
2018-03-14T08:46:00.921Z,4.36
2018-03-14T08:47:01.162Z,4.39
2018-03-14T08:48:00.892Z,4.44
2018-03-14T08:49:00.876Z,4.51
2018-03-14T08:50:01.117Z,4.57
2018-03-14T08:51:01.103Z,4.57
2018-03-14T08:52:01.113Z,4.53
2018-03-14T08:53:01.073Z,4.46
2018-03-14T08:54:00.807Z,4.36
2018-03-14T08:55:00.791Z,4.36
2018-03-14T08:56:00.774Z,4.39
2018-03-14T08:57:01.023Z,4.33
2018-03-14T08:58:01.012Z,4.3
2018-03-14T08:59:00.986Z,4.21
2018-03-14T09:00:00.715Z,4.18
2018-03-14T09:01:00.706Z,4.15
2018-03-14T09:02:00.946Z,4.1
2018-03-14T09:03:00.930Z,4.11
2018-03-14T09:04:00.659Z,3.96
2018-03-14T09:05:00.903Z,4
2018-03-14T09:06:00.888Z,3.93
2018-03-14T09:07:00.873Z,3.97
2018-03-14T09:08:00.856Z,3.92
2018-03-14T09:09:00.585Z,3.84
2018-03-14T09:10:00.831Z,3.97
2018-03-14T09:11:00.298Z,3.92
2018-03-14T09:12:00.796Z,3.93
2018-03-14T09:13:00.780Z,3.92
2018-03-14T09:14:00.770Z,3.86
2018-03-14T09:15:00.495Z,3.99
2018-03-14T09:16:00.482Z,3.94
2018-03-14T09:17:00.472Z,3.97
2018-03-14T09:18:00.719Z,3.82
2018-03-14T09:19:00.438Z,3.81
2018-03-14T09:20:00.677Z,3.79
2018-03-14T09:21:00.668Z,3.81
2018-03-14T09:22:00.393Z,3.74
2018-03-14T09:23:00.638Z,3.72
2018-03-14T09:24:00.620Z,3.71
2018-03-14T09:25:00.348Z,3.74
2018-03-14T09:26:00.587Z,3.64
2018-03-14T09:27:00.575Z,3.75
2018-03-14T09:28:00.561Z,3.79
2018-03-14T09:29:00.544Z,3.79
2018-03-14T09:30:00.271Z,3.76
2018-03-14T09:31:00.520Z,3.76
2018-03-14T09:32:00.244Z,3.81
2018-03-14T09:33:00.489Z,3.74
2018-03-14T09:34:00.212Z,3.82
2018-03-14T09:35:00.199Z,3.78
2018-03-14T09:36:00.438Z,3.81
2018-03-14T09:37:00.425Z,3.86
2018-03-14T09:38:00.411Z,3.85
2018-03-14T09:39:00.398Z,3.92
2018-03-14T09:40:00.129Z,3.94
2018-03-14T09:41:00.364Z,3.89
2018-03-14T09:42:00.095Z,3.93
2018-03-14T09:43:00.080Z,3.93
2018-03-14T09:44:00.320Z,4.07
2018-03-14T09:45:00.050Z,4.04
2018-03-14T09:46:00.310Z,4.04
2018-03-14T09:47:00.320Z,4.02
2018-03-14T09:48:00.261Z,3.96
2018-03-14T09:49:00.243Z,4.07
2018-03-14T09:49:59.722Z,3.94
2018-03-14T09:51:00.221Z,3.96
2018-03-14T09:51:59.944Z,4.04
2018-03-14T09:52:59.672Z,4.04
2018-03-14T09:53:59.916Z,4.1
2018-03-14T09:55:00.157Z,4.07
2018-03-14T09:55:59.884Z,4.14
2018-03-14T09:57:00.132Z,4.07
2018-03-14T09:58:00.114Z,3.96
2018-03-14T09:58:59.843Z,3.92
2018-03-14T09:59:59.829Z,3.9
2018-03-14T10:01:00.068Z,3.84
2018-03-14T10:01:59.795Z,3.85
2018-03-14T10:02:59.781Z,3.85
2018-03-14T10:04:00.052Z,3.9
2018-03-14T10:05:00.013Z,3.85
2018-03-14T10:05:59.480Z,3.96
2018-03-14T10:06:59.721Z,3.92
2018-03-14T10:07:59.705Z,3.93
2018-03-14T10:08:59.950Z,4.07
2018-03-14T10:09:59.677Z,4.07
2018-03-14T10:10:59.661Z,3.93
2018-03-14T10:11:59.907Z,3.99
2018-03-14T10:12:59.891Z,3.94
2018-03-14T10:13:59.878Z,3.96
2018-03-14T10:14:59.860Z,4.11
2018-03-14T10:15:59.843Z,4.12
2018-03-14T10:16:59.314Z,4.2
2018-03-14T10:17:59.300Z,4.24
2018-03-14T10:18:59.801Z,4.21
2018-03-14T10:19:59.797Z,4.2
2018-03-14T10:20:59.779Z,4.22
2018-03-14T10:21:59.871Z,4.32
2018-03-14T10:22:59.484Z,4.3
2018-03-14T10:23:59.732Z,4.46
2018-03-14T10:24:59.711Z,4.54
2018-03-14T10:25:59.768Z,4.57
2018-03-14T10:26:59.684Z,4.56
2018-03-14T10:27:59.673Z,4.57
2018-03-14T10:28:59.652Z,4.44
2018-03-14T10:29:59.636Z,4.53
2018-03-14T10:30:59.623Z,4.54
2018-03-14T10:31:59.352Z,4.66
2018-03-14T10:32:59.340Z,4.54
2018-03-14T10:33:59.580Z,4.61
2018-03-14T10:34:59.565Z,4.64
2018-03-14T10:35:59.040Z,4.65
2018-03-14T10:36:59.284Z,4.53
2018-03-14T10:37:59.271Z,4.48
2018-03-14T10:38:59.511Z,4.4
2018-03-14T10:39:59.239Z,4.3
2018-03-14T10:40:59.496Z,4.11
2018-03-14T10:41:59.467Z,4.03
2018-03-14T10:42:58.936Z,3.93
2018-03-14T10:43:59.436Z,3.84
2018-03-14T10:44:59.420Z,3.76
2018-03-14T10:45:59.558Z,3.58
2018-03-14T10:46:59.134Z,3.54
2018-03-14T10:47:59.121Z,3.63
2018-03-14T10:48:59.108Z,3.6
2018-03-14T10:49:59.357Z,3.48
2018-03-14T10:50:59.335Z,3.57
2018-03-14T10:51:58.802Z,3.72
2018-03-14T10:52:59.303Z,3.81
2018-03-14T10:53:59.294Z,3.78
2018-03-14T10:54:59.017Z,3.94
2018-03-14T10:55:59.043Z,4.02
2018-03-14T10:56:59.244Z,3.94
2018-03-14T10:57:59.230Z,3.93
2018-03-14T10:58:58.957Z,3.97
2018-03-14T10:59:59.203Z,4
2018-03-14T11:00:59.189Z,4.03
2018-03-14T11:01:59.168Z,3.96
2018-03-14T11:02:59.155Z,3.93
2018-03-14T11:03:58.882Z,3.79
2018-03-14T11:04:59.122Z,3.82
2018-03-14T11:05:59.110Z,3.74
2018-03-14T11:06:59.105Z,3.66
2018-03-14T11:07:59.078Z,3.72
2018-03-14T11:08:59.065Z,3.67
2018-03-14T11:09:59.056Z,3.66
2018-03-14T11:10:59.114Z,3.74
2018-03-14T11:11:59.015Z,3.74
2018-03-14T11:12:58.749Z,3.64
2018-03-14T11:13:58.733Z,3.64
2018-03-14T11:14:58.976Z,3.79
2018-03-14T11:15:58.446Z,3.81
2018-03-14T11:16:58.689Z,3.79
2018-03-14T11:17:58.673Z,3.81
2018-03-14T11:18:58.915Z,3.89
2018-03-14T11:19:58.901Z,4
2018-03-14T11:20:58.888Z,3.89
2018-03-14T11:21:58.870Z,3.93
2018-03-14T11:22:58.865Z,3.89
2018-03-14T11:23:58.841Z,3.74
2018-03-14T11:24:58.831Z,3.69
2018-03-14T11:25:58.559Z,3.79
2018-03-14T11:26:58.797Z,3.72
2018-03-14T11:27:58.530Z,3.75
2018-03-14T11:28:58.511Z,3.76
2018-03-14T11:29:58.758Z,3.76
2018-03-14T11:30:58.482Z,3.72
2018-03-14T11:31:58.468Z,3.78
2018-03-14T11:32:58.453Z,3.82
2018-03-14T11:33:58.698Z,3.79
2018-03-14T11:34:58.419Z,3.82
2018-03-14T11:35:58.409Z,3.82
2018-03-14T11:36:58.392Z,3.84
2018-03-14T11:37:58.378Z,3.86
2018-03-14T11:38:58.616Z,3.93
2018-03-14T11:39:58.602Z,3.99
2018-03-14T11:40:58.589Z,4.07
2018-03-14T11:41:58.060Z,4.12
2018-03-14T11:42:58.561Z,4.29
2018-03-14T11:43:58.546Z,4.28
2018-03-14T11:44:58.277Z,4.44
2018-03-14T11:45:58.514Z,4.57
2018-03-14T11:46:58.517Z,4.5
2018-03-14T11:47:57.973Z,4.58
2018-03-14T11:48:58.217Z,4.47
2018-03-14T11:49:58.201Z,4.44
2018-03-14T11:50:58.185Z,4.53
2018-03-14T11:51:58.173Z,4.51
2018-03-14T11:52:57.900Z,4.51
2018-03-14T11:53:58.703Z,4.65
2018-03-14T11:54:58.325Z,4.56
2018-03-14T11:55:58.154Z,4.58
2018-03-14T11:56:58.631Z,4.51
2018-03-14T11:57:58.351Z,4.53
2018-03-14T11:58:58.446Z,4.51
2018-03-14T11:59:58.315Z,4.5
2018-03-14T12:00:58.044Z,4.53
2018-03-14T12:01:58.292Z,4.47
2018-03-14T12:02:58.016Z,4.56
2018-03-14T12:03:58.278Z,4.56
2018-03-14T12:04:58.246Z,4.53
2018-03-14T12:05:58.235Z,4.48
2018-03-14T12:06:57.960Z,4.5
2018-03-14T12:07:58.251Z,4.51
2018-03-14T12:08:58.232Z,4.54
2018-03-14T12:09:57.916Z,4.48
2018-03-14T12:10:58.162Z,4.64
2018-03-14T12:11:58.144Z,4.66
2018-03-14T12:12:58.138Z,4.6
2018-03-14T12:13:58.118Z,4.65
2018-03-14T12:14:57.591Z,4.69
2018-03-14T12:15:57.837Z,4.69
2018-03-14T12:16:58.071Z,4.68
2018-03-14T12:17:58.060Z,4.68
2018-03-14T12:18:57.532Z,4.71
2018-03-14T12:19:57.774Z,4.76
2018-03-14T12:20:58.086Z,4.76
2018-03-14T12:21:57.489Z,4.87
2018-03-14T12:22:57.736Z,4.79
2018-03-14T12:23:57.976Z,4.94
2018-03-14T12:24:57.449Z,4.91
2018-03-14T12:25:57.946Z,4.94
2018-03-14T12:26:57.678Z,4.94
2018-03-14T12:27:57.919Z,4.94
2018-03-14T12:28:57.647Z,4.97
2018-03-14T12:29:58.085Z,5.09
2018-03-14T12:30:57.620Z,4.98
2018-03-14T12:31:57.870Z,5.06
2018-03-14T12:32:57.848Z,5.18
2018-03-14T12:33:57.577Z,5.24
2018-03-14T12:34:57.823Z,5.23
2018-03-14T12:35:57.551Z,5.18
2018-03-14T12:36:57.575Z,5.16
2018-03-14T12:37:57.783Z,5.16
2018-03-14T12:38:57.253Z,5.13
2018-03-14T12:39:57.804Z,5.12
2018-03-14T12:40:57.741Z,5.05
2018-03-14T12:41:57.730Z,4.98
2018-03-14T12:42:57.721Z,4.87
2018-03-14T12:43:57.707Z,4.94
2018-03-14T12:44:57.441Z,4.88
2018-03-14T12:45:57.478Z,4.85
2018-03-14T12:46:57.657Z,4.85
2018-03-14T12:47:57.641Z,4.92
2018-03-14T12:48:57.377Z,4.92
2018-03-14T12:49:57.619Z,4.95
2018-03-14T12:50:57.596Z,4.94
2018-03-14T12:51:57.331Z,4.94
2018-03-14T12:52:57.320Z,4.97
2018-03-14T12:53:57.302Z,4.98
2018-03-14T12:54:57.295Z,4.95
2018-03-14T12:55:57.277Z,4.97
2018-03-14T12:56:57.005Z,5.03
2018-03-14T12:57:57.251Z,5.05
2018-03-14T12:58:57.233Z,5.09
2018-03-14T12:59:57.219Z,5.15
2018-03-14T13:00:57.466Z,5.15
2018-03-14T13:01:56.935Z,5.18
2018-03-14T13:02:57.179Z,5.21
2018-03-14T13:03:57.423Z,5.16
2018-03-14T13:04:57.417Z,5.15
2018-03-14T13:05:57.142Z,5.15
2018-03-14T13:06:57.126Z,5.12
2018-03-14T13:07:57.378Z,5.16
2018-03-14T13:08:57.359Z,5.24
2018-03-14T13:09:57.340Z,5.28
2018-03-14T13:10:57.078Z,5.41
2018-03-14T13:11:57.056Z,5.42
2018-03-14T13:12:57.053Z,5.37
2018-03-14T13:13:57.288Z,5.36
2018-03-14T13:14:57.018Z,5.49
2018-03-14T13:15:57.002Z,5.66
2018-03-14T13:16:57.313Z,5.59
2018-03-14T13:17:57.235Z,5.67
2018-03-14T13:18:57.221Z,5.64
2018-03-14T13:19:57.207Z,5.73
2018-03-14T13:20:56.940Z,5.73